createdAt,value
2024-01-24T00:01:47.211Z,8.07
2024-01-24T00:04:13.658Z,6.57
2024-01-24T00:06:40.097Z,12.23
2024-01-24T00:09:06.513Z,7.38
2024-01-24T00:11:32.887Z,9.40
2024-01-24T00:13:59.335Z,8.13
2024-01-24T00:16:26.741Z,8.02
2024-01-24T00:18:54.229Z,8.82
2024-01-24T00:21:20.695Z,8.75
2024-01-24T00:23:47.076Z,9.68
2024-01-24T00:26:13.441Z,8.93
2024-01-24T00:28:40.120Z,8.57
2024-01-24T00:31:06.563Z,6.25
2024-01-24T00:33:33.269Z,10.18
2024-01-24T00:35:59.728Z,9.90
2024-01-24T00:38:26.594Z,8.50
2024-01-24T00:40:53.099Z,9.10
2024-01-24T00:43:19.500Z,7.57
2024-01-24T00:45:45.995Z,11.43
2024-01-24T00:48:12.457Z,8.63
2024-01-24T00:50:38.953Z,7.43
2024-01-24T00:53:05.621Z,8.50
2024-01-24T00:55:33.206Z,6.82
2024-01-24T00:57:59.677Z,10.15
2024-01-24T01:00:26.198Z,5.80
2024-01-24T01:02:53.165Z,9.93
2024-01-24T01:05:19.739Z,6.28
2024-01-24T01:07:46.114Z,5.78
2024-01-24T01:10:12.477Z,7.43
2024-01-24T01:12:39.007Z,5.80
2024-01-24T01:15:06.022Z,5.35
2024-01-24T01:17:32.391Z,8.18
2024-01-24T01:19:58.774Z,7.78
2024-01-24T01:22:25.233Z,5.28
2024-01-24T01:24:51.672Z,8.38
2024-01-24T01:27:18.166Z,10.35
2024-01-24T01:29:44.561Z,6.32
2024-01-24T01:32:10.949Z,5.32
2024-01-24T01:34:37.581Z,3.70
2024-01-24T01:37:04.208Z,4.88
2024-01-24T01:39:30.672Z,5.00
2024-01-24T01:41:57.187Z,5.78
2024-01-24T01:44:23.602Z,2.50
2024-01-24T01:46:50.036Z,4.82
2024-01-24T01:49:16.612Z,6.63
2024-01-24T01:51:43.058Z,3.33
2024-01-24T01:54:10.198Z,4.60
2024-01-24T01:56:36.662Z,3.90
2024-01-24T01:59:03.094Z,3.83
2024-01-24T02:01:29.660Z,5.20
2024-01-24T02:03:56.215Z,3.95
2024-01-24T02:06:22.817Z,2.95
2024-01-24T02:08:49.470Z,4.10
2024-01-24T02:11:15.903Z,1.45
2024-01-24T02:13:42.332Z,2.45
2024-01-24T02:16:08.689Z,1.95
2024-01-24T02:18:35.099Z,3.35
2024-01-24T02:21:01.878Z,1.95
2024-01-24T02:23:28.307Z,4.03
2024-01-24T02:25:54.822Z,1.65
2024-01-24T02:28:23.670Z,1.88
2024-01-24T02:33:24.748Z,1.70
2024-01-24T02:35:51.377Z,0.70
2024-01-24T02:38:17.811Z,1.00
2024-01-24T02:40:44.181Z,2.53
2024-01-24T02:43:10.547Z,3.75
2024-01-24T02:45:36.979Z,3.55
2024-01-24T02:48:04.722Z,1.25
2024-01-24T02:50:31.160Z,3.05
2024-01-24T02:52:57.537Z,1.92
2024-01-24T02:55:23.985Z,1.60
2024-01-24T02:57:50.450Z,1.02
2024-01-24T03:00:17.443Z,2.25
2024-01-24T03:02:43.961Z,0.50
2024-01-24T03:05:10.548Z,0.98
2024-01-24T03:07:37.647Z,1.30
2024-01-24T03:10:04.444Z,1.80
2024-01-24T03:12:31.900Z,2.65
2024-01-24T03:14:58.360Z,1.05
2024-01-24T03:17:24.803Z,1.55
2024-01-24T03:19:51.298Z,3.10
2024-01-24T03:22:17.756Z,0.63
2024-01-24T03:24:44.170Z,0.50
2024-01-24T03:27:10.601Z,0.30
2024-01-24T03:29:37.057Z,1.45
2024-01-24T03:32:03.469Z,2.25
2024-01-24T03:34:29.906Z,0.30
2024-01-24T03:36:56.309Z,0.20
2024-01-24T03:39:22.874Z,0.30
2024-01-24T03:41:49.281Z,0.30
2024-01-24T03:44:15.669Z,0.25
2024-01-24T03:46:42.125Z,0.95
2024-01-24T03:49:08.570Z,0.32
2024-01-24T03:51:35.021Z,0.20
2024-01-24T03:54:01.737Z,1.35
2024-01-24T03:56:28.235Z,0.38
2024-01-24T03:58:54.622Z,0.88
2024-01-24T04:01:23.627Z,1.08
2024-01-24T04:03:50.258Z,0.30
2024-01-24T04:06:16.819Z,0.65
2024-01-24T04:08:44.577Z,0.30
2024-01-24T04:11:10.946Z,0.20
2024-01-24T04:13:37.326Z,0.50
2024-01-24T04:16:03.910Z,0.90
2024-01-24T04:18:30.408Z,0.68
2024-01-24T04:20:56.823Z,0.80
2024-01-24T04:23:23.208Z,0.88
2024-01-24T04:25:49.577Z,1.48
2024-01-24T04:28:15.950Z,1.08
2024-01-24T04:30:42.359Z,0.93
2024-01-24T04:33:08.883Z,2.58
2024-01-24T04:35:35.351Z,2.13
2024-01-24T04:38:02.110Z,1.10
2024-01-24T04:40:28.501Z,1.27
2024-01-24T04:42:54.869Z,2.72
2024-01-24T04:45:21.584Z,2.28
2024-01-24T04:47:48.012Z,2.22
2024-01-24T04:50:14.501Z,2.85
2024-01-24T04:52:41.016Z,5.25
2024-01-24T04:55:13.528Z,2.85
2024-01-24T04:57:40.445Z,2.53
2024-01-24T05:00:07.357Z,1.90
2024-01-24T05:02:33.916Z,4.28
2024-01-24T05:05:00.345Z,6.63
2024-01-24T05:07:26.717Z,2.03
2024-01-24T05:09:54.141Z,6.15
2024-01-24T05:12:20.610Z,3.80
2024-01-24T05:14:47.022Z,7.28
2024-01-24T05:17:13.395Z,4.18
2024-01-24T05:19:40.249Z,4.40
2024-01-24T05:22:06.668Z,4.80
2024-01-24T05:24:33.076Z,7.47
2024-01-24T05:26:59.539Z,9.27
2024-01-24T05:29:25.926Z,3.92
2024-01-24T05:31:53.348Z,8.43
2024-01-24T05:34:19.830Z,7.60
2024-01-24T05:36:46.678Z,10.88
2024-01-24T05:39:13.158Z,9.27
2024-01-24T05:41:39.547Z,8.35
2024-01-24T05:44:06.009Z,10.73
2024-01-24T05:46:32.466Z,5.07
2024-01-24T05:48:59.014Z,8.40
2024-01-24T05:51:25.598Z,38.50
2024-01-24T05:53:52.050Z,12.35
2024-01-24T05:56:18.552Z,12.35
2024-01-24T05:58:45.003Z,7.63
2024-01-24T06:01:11.537Z,6.15
2024-01-24T06:03:38.216Z,8.73
2024-01-24T06:06:04.806Z,10.05
2024-01-24T06:08:31.220Z,11.13
2024-01-24T06:10:57.658Z,11.90
2024-01-24T06:13:24.060Z,9.05
2024-01-24T06:15:51.545Z,11.63
2024-01-24T06:18:18.492Z,11.05
2024-01-24T06:20:44.970Z,8.48
2024-01-24T06:23:11.394Z,11.82
2024-01-24T06:25:37.754Z,21.58
2024-01-24T06:28:04.426Z,12.27
2024-01-24T06:30:32.338Z,15.18
2024-01-24T06:32:59.012Z,10.73
2024-01-24T06:35:25.534Z,13.10
2024-01-24T06:37:51.934Z,9.50
2024-01-24T06:40:18.838Z,15.25
2024-01-24T06:42:45.333Z,10.95
2024-01-24T06:45:12.307Z,9.85
2024-01-24T06:47:38.754Z,11.43
2024-01-24T06:50:06.166Z,9.63
2024-01-24T06:52:32.536Z,16.30
2024-01-24T06:54:59.120Z,13.90
2024-01-24T06:57:25.983Z,12.68
2024-01-24T06:59:53.718Z,17.80
2024-01-24T07:02:20.090Z,8.73
2024-01-24T07:04:46.697Z,12.75
2024-01-24T07:07:13.185Z,14.30
2024-01-24T07:09:39.636Z,12.90
2024-01-24T07:12:06.422Z,9.98
2024-01-24T07:14:32.835Z,17.42
2024-01-24T07:16:59.191Z,12.48
2024-01-24T07:19:25.655Z,16.63
2024-01-24T07:21:52.257Z,14.10
2024-01-24T07:24:18.796Z,12.38
2024-01-24T07:26:45.247Z,14.43
2024-01-24T07:29:11.613Z,12.38
2024-01-24T07:31:38.264Z,16.27
2024-01-24T07:34:04.834Z,12.98
2024-01-24T07:36:31.316Z,12.55
2024-01-24T07:38:57.777Z,15.20
2024-01-24T07:41:24.194Z,14.95
2024-01-24T07:43:50.626Z,18.48
2024-01-24T07:46:17.055Z,12.55
2024-01-24T07:48:43.930Z,20.42
2024-01-24T07:51:10.585Z,17.75
2024-01-24T07:53:36.957Z,16.40
2024-01-24T07:56:11.123Z,14.88
2024-01-24T07:58:45.799Z,14.70
2024-01-24T08:01:12.389Z,17.98
2024-01-24T08:03:39.108Z,14.85
2024-01-24T08:06:06.045Z,15.77
2024-01-24T08:08:32.831Z,17.40
2024-01-24T08:10:59.552Z,13.05
2024-01-24T08:13:25.980Z,14.45
2024-01-24T08:15:52.842Z,20.20
2024-01-24T08:18:19.336Z,16.15
2024-01-24T08:20:45.734Z,10.77
2024-01-24T08:23:12.280Z,17.40
2024-01-24T08:25:38.642Z,18.88
2024-01-24T08:28:05.161Z,16.45
2024-01-24T08:30:31.812Z,20.02
2024-01-24T08:32:58.259Z,12.77
2024-01-24T08:35:24.682Z,16.58
2024-01-24T08:37:51.092Z,14.05
2024-01-24T08:40:17.482Z,11.52
2024-01-24T08:42:43.961Z,21.10
2024-01-24T08:45:10.627Z,20.92
2024-01-24T08:47:37.128Z,18.98
2024-01-24T08:50:04.872Z,15.95
2024-01-24T08:52:32.134Z,15.82
2024-01-24T08:54:59.025Z,22.55
2024-01-24T08:57:27.930Z,14.23
2024-01-24T08:59:54.986Z,19.73
2024-01-24T09:02:23.336Z,17.83
2024-01-24T09:04:49.803Z,16.63
2024-01-24T09:07:17.434Z,19.17
2024-01-24T09:09:43.939Z,19.20
2024-01-24T09:12:10.452Z,19.90
2024-01-24T09:14:36.953Z,18.67
2024-01-24T09:17:03.439Z,17.02
2024-01-24T09:19:29.969Z,11.82
2024-01-24T09:21:56.621Z,17.70
2024-01-24T09:24:23.186Z,20.67
2024-01-24T09:26:49.639Z,16.02
2024-01-24T09:29:16.769Z,16.80
2024-01-24T09:31:43.479Z,12.43
2024-01-24T09:34:12.156Z,14.43
2024-01-24T09:36:38.906Z,18.80
2024-01-24T09:39:05.413Z,14.90
2024-01-24T09:41:44.229Z,18.73
2024-01-24T09:44:11.300Z,17.33
2024-01-24T09:46:37.740Z,18.88
2024-01-24T09:49:06.299Z,17.55
2024-01-24T09:51:33.690Z,16.13
2024-01-24T09:54:07.535Z,18.90
2024-01-24T09:56:38.639Z,13.27
2024-01-24T09:59:09.113Z,15.40
2024-01-24T10:01:38.650Z,20.17
2024-01-24T10:04:05.480Z,15.20
2024-01-24T10:06:32.775Z,12.23
2024-01-24T10:08:59.998Z,19.70
2024-01-24T10:11:27.197Z,16.83
2024-01-24T10:14:01.784Z,19.58
2024-01-24T10:16:28.333Z,17.63
2024-01-24T10:18:55.424Z,17.90
2024-01-24T10:21:22.432Z,18.55
2024-01-24T10:23:48.926Z,18.10
2024-01-24T10:26:16.435Z,17.13
2024-01-24T10:28:46.326Z,13.80
2024-01-24T10:31:12.773Z,16.10
2024-01-24T10:33:39.456Z,15.25
2024-01-24T10:36:14.465Z,15.02
2024-01-24T10:38:49.143Z,19.35
2024-01-24T10:41:16.592Z,17.33
2024-01-24T10:43:48.106Z,16.65
2024-01-24T10:46:16.805Z,21.27
2024-01-24T10:48:43.351Z,18.13
2024-01-24T10:51:10.569Z,20.23
2024-01-24T10:53:37.460Z,16.88
2024-01-24T10:56:05.213Z,12.77
2024-01-24T10:58:32.960Z,10.20
2024-01-24T11:01:00.695Z,13.20
2024-01-24T11:03:27.480Z,17.60
2024-01-24T11:05:55.970Z,18.30
2024-01-24T11:08:39.893Z,17.77
2024-01-24T11:11:12.014Z,19.83
2024-01-24T11:13:38.567Z,16.60
2024-01-24T11:16:26.708Z,15.45
2024-01-24T11:18:53.823Z,14.05
2024-01-24T11:21:23.474Z,19.23
2024-01-24T11:23:50.316Z,16.45
2024-01-24T11:26:19.872Z,16.58
2024-01-24T11:28:49.779Z,11.88
2024-01-24T11:31:39.383Z,18.38
2024-01-24T11:34:10.595Z,14.50
2024-01-24T11:36:47.154Z,17.98
2024-01-24T11:39:40.203Z,11.27
2024-01-24T11:44:55.057Z,19.20
2024-01-24T11:47:25.063Z,15.35
2024-01-24T11:49:54.541Z,13.00
2024-01-24T11:52:21.526Z,14.90
2024-01-24T11:54:52.467Z,19.13
2024-01-24T11:57:19.156Z,13.90
2024-01-24T11:59:45.728Z,19.00
2024-01-24T12:02:12.392Z,13.77
2024-01-24T12:04:38.794Z,11.55
2024-01-24T12:07:05.592Z,14.40
2024-01-24T12:09:32.060Z,15.98
2024-01-24T12:11:58.454Z,17.67
2024-01-24T12:14:24.908Z,13.82
2024-01-24T12:16:52.019Z,10.27
2024-01-24T12:19:19.666Z,13.88
2024-01-24T12:21:46.267Z,10.10
2024-01-24T12:24:12.915Z,18.05
2024-01-24T12:26:41.184Z,10.40
2024-01-24T12:29:08.632Z,14.50
2024-01-24T12:31:37.686Z,14.20
2024-01-24T12:34:08.029Z,7.88
2024-01-24T12:36:34.557Z,9.38
2024-01-24T12:39:02.098Z,16.45
2024-01-24T12:41:29.488Z,17.05
2024-01-24T12:43:57.359Z,14.80
2024-01-24T12:46:24.126Z,16.80
2024-01-24T12:48:50.739Z,15.10
2024-01-24T12:51:17.344Z,12.40
2024-01-24T12:53:43.900Z,13.00
2024-01-24T12:56:10.358Z,10.80
2024-01-24T12:58:36.795Z,14.35
2024-01-24T13:01:03.718Z,15.90
2024-01-24T13:03:30.669Z,12.70
2024-01-24T13:05:57.654Z,12.88
2024-01-24T13:08:24.332Z,12.35
2024-01-24T13:10:51.464Z,16.60
2024-01-24T13:13:17.980Z,15.20
2024-01-24T13:15:44.802Z,11.77
2024-01-24T13:18:11.573Z,12.88
2024-01-24T13:20:38.103Z,14.68
2024-01-24T13:23:04.873Z,14.05
2024-01-24T13:25:31.386Z,13.23
2024-01-24T13:27:58.175Z,12.48
2024-01-24T13:30:27.439Z,14.82
2024-01-24T13:32:54.224Z,12.27
2024-01-24T13:35:20.776Z,8.30
2024-01-24T13:37:47.646Z,10.10
2024-01-24T13:40:14.493Z,10.23
2024-01-24T13:42:41.104Z,12.48
2024-01-24T13:45:08.078Z,12.05
2024-01-24T13:47:34.784Z,14.88
2024-01-24T13:50:01.451Z,22.20
2024-01-24T13:52:28.223Z,19.15
2024-01-24T13:54:54.828Z,15.40
2024-01-24T13:57:21.435Z,11.45
2024-01-24T13:59:47.971Z,16.23
2024-01-24T14:02:14.600Z,11.50
2024-01-24T14:04:41.441Z,10.05
2024-01-24T14:07:08.300Z,12.75
2024-01-24T14:09:35.816Z,8.77
2024-01-24T14:14:32.284Z,13.68
2024-01-24T14:16:59.342Z,10.40
2024-01-24T14:19:26.754Z,10.85
2024-01-24T14:21:53.491Z,13.57
2024-01-24T14:24:19.898Z,12.73
2024-01-24T14:26:46.285Z,16.20
2024-01-24T14:29:12.674Z,13.25
2024-01-24T14:31:39.321Z,10.95
2024-01-24T14:34:06.582Z,11.32
2024-01-24T14:36:36.506Z,14.00
2024-01-24T14:39:03.575Z,14.60
2024-01-24T14:41:29.928Z,7.90
2024-01-24T14:43:56.781Z,12.35
2024-01-24T14:46:24.053Z,11.13
2024-01-24T14:48:50.579Z,12.93
2024-01-24T14:51:17.485Z,8.35
2024-01-24T14:53:43.856Z,14.55
2024-01-24T14:56:10.617Z,13.45
2024-01-24T14:58:37.050Z,15.23
2024-01-24T15:01:03.565Z,16.70
2024-01-24T15:03:30.002Z,11.75
2024-01-24T15:05:57.030Z,14.30
2024-01-24T15:08:25.749Z,7.28
2024-01-24T15:10:52.570Z,8.60
2024-01-24T15:13:19.020Z,8.25
2024-01-24T15:15:45.563Z,14.15
2024-01-24T15:18:12.006Z,11.43
2024-01-24T15:20:43.228Z,14.65
2024-01-24T15:23:16.181Z,11.35
2024-01-24T15:25:42.929Z,15.90
2024-01-24T15:28:09.431Z,12.10
2024-01-24T15:30:35.851Z,14.32
2024-01-24T15:33:02.453Z,13.32
2024-01-24T15:35:29.008Z,12.95
2024-01-24T15:37:56.281Z,12.82
2024-01-24T15:40:22.918Z,17.92
2024-01-24T15:42:49.478Z,10.85
2024-01-24T15:45:16.250Z,10.68
2024-01-24T15:47:43.675Z,10.90
2024-01-24T15:50:12.341Z,10.38
2024-01-24T15:52:41.328Z,9.40
2024-01-24T15:55:08.452Z,10.13
2024-01-24T15:57:34.965Z,13.13
2024-01-24T16:00:01.446Z,14.20
2024-01-24T16:02:27.981Z,10.57
2024-01-24T16:04:54.515Z,10.45
2024-01-24T16:07:21.087Z,10.98
2024-01-24T16:09:47.584Z,13.55
2024-01-24T16:12:14.351Z,11.13
2024-01-24T16:14:40.827Z,13.60
2024-01-24T16:17:07.746Z,11.73
2024-01-24T16:19:38.257Z,16.35
2024-01-24T16:22:04.797Z,17.38
2024-01-24T16:24:31.520Z,14.35
2024-01-24T16:26:57.971Z,12.40
2024-01-24T16:29:24.352Z,9.25
2024-01-24T16:31:50.771Z,11.50
2024-01-24T16:34:17.254Z,10.50
2024-01-24T16:36:43.726Z,12.30
2024-01-24T16:39:10.432Z,16.25
2024-01-24T16:41:36.819Z,12.02
2024-01-24T16:44:03.233Z,10.85
2024-01-24T16:46:29.632Z,10.65
2024-01-24T16:48:56.124Z,13.43
2024-01-24T16:51:24.758Z,16.90
2024-01-24T16:53:51.206Z,11.02
2024-01-24T16:56:17.566Z,10.82
2024-01-24T16:58:43.940Z,13.25
2024-01-24T17:01:12.383Z,15.52
2024-01-24T17:03:38.916Z,17.00
2024-01-24T17:06:05.775Z,12.73
2024-01-24T17:08:32.513Z,10.02
2024-01-24T17:10:58.961Z,13.43
2024-01-24T17:13:25.352Z,15.50
2024-01-24T17:15:51.754Z,15.68
2024-01-24T17:18:19.796Z,9.77
2024-01-24T17:20:46.182Z,12.13
2024-01-24T17:23:12.689Z,10.95
2024-01-24T17:25:39.118Z,14.00
2024-01-24T17:28:05.899Z,10.73
2024-01-24T17:30:32.374Z,11.63
2024-01-24T17:32:58.811Z,11.13
2024-01-24T17:35:25.267Z,35.17
2024-01-24T17:37:51.827Z,21.27
2024-01-24T17:40:18.369Z,16.88
2024-01-24T17:42:44.818Z,12.73
2024-01-24T17:45:11.257Z,13.25
2024-01-24T17:47:37.915Z,11.00
2024-01-24T17:50:04.739Z,13.30
2024-01-24T17:52:31.254Z,11.52
2024-01-24T17:54:58.459Z,20.42
2024-01-24T17:57:24.946Z,10.10
2024-01-24T17:59:51.382Z,16.80
2024-01-24T18:02:18.110Z,14.48
2024-01-24T18:04:44.652Z,15.85
2024-01-24T18:07:11.319Z,13.90
2024-01-24T18:09:37.891Z,13.32
2024-01-24T18:12:04.528Z,11.02
2024-01-24T18:14:30.940Z,14.32
2024-01-24T18:16:57.293Z,13.52
2024-01-24T18:19:24.462Z,12.02
2024-01-24T18:21:50.859Z,14.50
2024-01-24T18:24:17.234Z,14.70
2024-01-24T18:26:43.645Z,17.90
2024-01-24T18:29:10.032Z,12.13
2024-01-24T18:31:36.392Z,41.65
2024-01-24T18:34:02.922Z,12.02
2024-01-24T18:36:29.378Z,13.68
2024-01-24T18:38:55.790Z,11.48
2024-01-24T18:41:22.811Z,13.95
2024-01-24T18:43:52.069Z,15.90
2024-01-24T18:46:20.381Z,16.00
2024-01-24T18:48:47.165Z,12.68
2024-01-24T18:51:13.666Z,16.25
2024-01-24T18:53:41.800Z,13.07
2024-01-24T18:56:08.739Z,12.27
2024-01-24T18:58:35.961Z,11.60
2024-01-24T19:01:05.796Z,13.55
2024-01-24T19:03:32.615Z,13.73
2024-01-24T19:05:59.523Z,18.60
2024-01-24T19:08:26.056Z,15.50
2024-01-24T19:10:55.253Z,11.80
2024-01-24T19:13:22.010Z,28.92
2024-01-24T19:15:48.439Z,33.65
2024-01-24T19:18:17.490Z,13.75
2024-01-24T19:20:46.752Z,18.35
2024-01-24T19:23:13.518Z,10.30
2024-01-24T19:25:39.948Z,12.63
2024-01-24T19:28:06.954Z,14.20
2024-01-24T19:30:33.405Z,18.90
2024-01-24T19:32:59.920Z,18.13
2024-01-24T19:35:26.471Z,12.85
2024-01-24T19:37:52.898Z,11.55
2024-01-24T19:40:19.378Z,17.98
2024-01-24T19:42:45.771Z,16.40
2024-01-24T19:45:12.565Z,17.25
2024-01-24T19:47:39.147Z,15.10
2024-01-24T19:50:07.144Z,19.00
2024-01-24T19:52:33.509Z,14.07
2024-01-24T19:54:59.928Z,18.35
2024-01-24T19:57:26.385Z,15.45
2024-01-24T19:59:52.836Z,15.50
2024-01-24T20:02:19.255Z,18.88
2024-01-24T20:04:45.700Z,19.08
2024-01-24T20:07:12.234Z,17.83
2024-01-24T20:09:38.726Z,16.90
2024-01-24T20:12:05.797Z,14.98
2024-01-24T20:14:32.231Z,18.02
2024-01-24T20:16:58.678Z,16.98
2024-01-24T20:19:25.040Z,21.42
2024-01-24T20:21:51.628Z,15.98
2024-01-24T20:24:18.133Z,19.13
2024-01-24T20:26:44.506Z,17.67
2024-01-24T20:29:13.310Z,13.30
2024-01-24T20:34:06.267Z,12.88
2024-01-24T20:36:34.458Z,16.42
2024-01-24T20:39:00.879Z,16.05
2024-01-24T20:41:28.084Z,17.50
2024-01-24T20:43:54.527Z,20.92
2024-01-24T20:46:20.974Z,15.05
2024-01-24T20:48:47.569Z,16.77
2024-01-24T20:51:14.033Z,15.95
2024-01-24T20:53:40.462Z,19.45
2024-01-24T20:56:07.161Z,16.73
2024-01-24T20:58:33.595Z,17.25
2024-01-24T21:01:00.364Z,14.00
2024-01-24T21:03:27.245Z,18.77
2024-01-24T21:05:56.314Z,19.85
2024-01-24T21:08:23.334Z,15.07
2024-01-24T21:10:55.689Z,14.07
2024-01-24T21:13:28.796Z,16.80
2024-01-24T21:15:55.211Z,11.48
2024-01-24T21:18:21.658Z,16.25
2024-01-24T21:20:48.334Z,18.08
2024-01-24T21:23:14.803Z,14.63
2024-01-24T21:25:41.172Z,17.60
2024-01-24T21:28:07.644Z,29.67
2024-01-24T21:30:35.201Z,10.80
2024-01-24T21:33:01.639Z,23.02
2024-01-24T21:35:28.078Z,15.00
2024-01-24T21:37:54.491Z,13.02
2024-01-24T21:40:20.918Z,10.40
2024-01-24T21:42:47.450Z,11.98
2024-01-24T21:45:13.868Z,15.90
2024-01-24T21:47:41.560Z,13.35
2024-01-24T21:50:09.057Z,19.55
2024-01-24T21:52:35.539Z,15.00
2024-01-24T21:55:02.324Z,9.63
2024-01-24T21:57:28.718Z,10.88
2024-01-24T21:59:55.121Z,13.30
2024-01-24T22:02:21.492Z,20.30
2024-01-24T22:04:50.119Z,23.08
2024-01-24T22:07:16.626Z,17.90
2024-01-24T22:09:43.100Z,12.55
2024-01-24T22:12:10.116Z,9.45
2024-01-24T22:14:36.501Z,19.15
2024-01-24T22:17:03.053Z,15.32
2024-01-24T22:19:29.589Z,13.88
2024-01-24T22:21:56.058Z,14.32
2024-01-24T22:24:23.497Z,18.20
2024-01-24T22:26:49.904Z,14.35
2024-01-24T22:29:17.521Z,7.60
2024-01-24T22:31:43.941Z,14.80
2024-01-24T22:34:10.465Z,15.02
2024-01-24T22:36:36.956Z,18.23
2024-01-24T22:39:03.471Z,18.08
2024-01-24T22:41:30.127Z,18.27
2024-01-24T22:43:57.051Z,16.83
2024-01-24T22:46:23.803Z,14.35
2024-01-24T22:48:50.368Z,11.52
2024-01-24T22:51:17.370Z,17.10
2024-01-24T22:53:43.774Z,12.93
2024-01-24T22:56:10.295Z,14.23
2024-01-24T22:58:36.740Z,10.40
2024-01-24T23:01:03.226Z,13.40
2024-01-24T23:03:29.820Z,11.38
2024-01-24T23:05:56.316Z,11.68
2024-01-24T23:08:23.280Z,17.75
2024-01-24T23:10:49.783Z,15.23
2024-01-24T23:13:16.465Z,12.52
2024-01-24T23:15:43.002Z,11.57
2024-01-24T23:18:09.472Z,19.98
2024-01-24T23:20:35.984Z,9.68
2024-01-24T23:23:02.457Z,17.35
2024-01-24T23:25:31.044Z,15.52
2024-01-24T23:27:57.493Z,17.88
2024-01-24T23:30:23.931Z,12.93
2024-01-24T23:32:50.380Z,22.35
2024-01-24T23:35:18.288Z,9.90
2024-01-24T23:37:44.881Z,20.15
2024-01-24T23:40:11.975Z,12.45
2024-01-24T23:42:38.441Z,14.02
2024-01-24T23:45:05.105Z,18.20
2024-01-24T23:47:31.576Z,19.40
2024-01-24T23:49:58.336Z,14.80
2024-01-24T23:52:25.138Z,16.83
2024-01-24T23:54:51.567Z,13.00
2024-01-24T23:57:17.955Z,19.33
2024-01-24T23:59:44.339Z,10.75
